METAR és
SPECI
METAR LHBP 262230Z VRB03KT 0800 R31L/1000N R31R/1200U FG OVC003 05/05 Q1016 NOSIG=
METAR LHBP 262200Z VRB01KT 1200 R31L/P1500N R31R/P1500D BR OVC003 05/05 Q1017 NOSIG=
METAR LHBP 262130Z 00000KT 1200 R31L/P1500N R31R/P1500U BR OVC009 05/05 Q1017 NOSIG=
METAR LHBP 262100Z VRB02KT 1200 R31L/P1500N R31R/P1500N BR OVC006 05/05 Q1017 NOSIG=
METAR LHBP 262030Z VRB03KT 1200 R31L/P1500N R31R/P1500N -DZ BR BKN002 OVC006 05/05 Q1017 NOSIG=
METAR LHBP 262000Z VRB03KT 1200 R31L/P1500N R31R/P1500N -DZ BR BKN002 OVC006 06/06 Q1017 NOSIG=
TAF
TAF AMD LHBP 262115Z 2621/2718 VRB03KT 1200 BR OVC006 TEMPO 2622/2706 1200 BCFG BR OVC002 PROB30 TEMPO 2704/2706 0500 -DZ FG VV001 BECMG 2707/2710 19005KT 7000 NSW BKN010 BECMG 2711/2714 13004KT 9999 BKN025=
GAMET
Nincs érvényes távirat! 
FAHU41 LHBM 261100
LHCC GAMET VALID 261200/261800 LHBP-
BUDAPEST FIR BLW FL100
SECN I
SFC VIS: 12/18 2000-5000M BR WI N4820 E01830 - N4813 E01935 -
N4600 E02200 - N4540 E01900 - N4820 E01830
SIG CLD: 12/18 BKN 0600-1000/6000-7000FT AGL WI N4820 E01830 -
N4813 E01935 - N4600 E02200 - N4540 E01900 -
N4820 E01830
ICE: 12/18 MOD 1500-2500/6000-7000FT MSL
SIGMETS APPLICABLE: NIL=
AIRMET
Nincs érvényes távirat! 
WAHU41 LHBM 231000
LHCC AIRMET 01 VALID 231000/231200 LHBP-
LHCC BUDAPEST FIR SFC VIS 0800-2000M DZ FG BR W OF N4611
E02000 - N4730 E02000 - N4823 E02200=
SIGMET
Nincs érvényes távirat! 
WSHU31 LHBM 241900
LHCC SIGMET 01 VALID 241900/242100 LHBP-
LHCC BUDAPEST FIR SEV TURB OBS AND FCST FL350/400
WI N4744 E01820 - N4814 E01935 - N4700 E01900 -
N4700 E01820 - N4744 E01820 STNR WKN=
SIGMET
Vulkáni hamufelhő
Nincs érvényes távirat! 
WVHU31 LHBM 271515 CCA
LHCC SIGMET 03 VALID 271515/271800 LHBP-
LHCC BUDAPEST FIR EXERCISE VOLCEX12/01
CNL VA SIGMET 02 271200/271800
EXERCISE EXERCISE EXERCISE VOLCEX12/01=